Terminal Aerodrome Forecast
Issued by NWS Albany, NY

Home | Current Version | Previous Version | Text Only | Print | Product List | Glossary On
Versions: 1 2 3 4 5 6 7 8 9 10 11 12 13 14 15 16 17 18 19 20 21 22 23
000
FTUS41 KALY 291228 CCA
TAFGFL
TAF COR
KGFL 291228Z 2912/3012 VRB03KT P6SM SCT120 BKN250
     FM291600 16007KT P6SM VCSH BKN060
     FM300200 19003KT 6SM BR SCT030 BKN200
     FM300900 VRB03KT 4SM BR VCSH BKN018 OVC090=

USA.gov is the U.S. government's official web portal to all federal, state and local government web resources and services.